createdAt,value
2018-04-23T00:01:25.468Z,16.43
2018-04-23T00:02:25.523Z,16.60
2018-04-23T00:04:18.524Z,16.56
2018-04-23T00:05:18.578Z,16.50
2018-04-23T00:07:11.623Z,16.51
2018-04-23T00:08:11.633Z,16.49
2018-04-23T00:10:04.652Z,16.57
2018-04-23T00:11:04.710Z,16.53
2018-04-23T00:12:57.704Z,16.53
2018-04-23T00:13:57.767Z,16.50
2018-04-23T00:15:50.766Z,16.60
2018-04-23T00:16:50.819Z,16.61
2018-04-23T00:18:43.809Z,16.58
2018-04-23T00:19:43.872Z,16.61
2018-04-23T00:21:36.872Z,16.65
2018-04-23T00:22:36.932Z,16.60
2018-04-23T00:24:29.923Z,16.65
2018-04-23T00:25:29.986Z,16.69
2018-04-23T00:27:22.990Z,16.75
2018-04-23T00:28:23.045Z,16.84
2018-04-23T00:30:16.041Z,16.81
2018-04-23T00:31:16.101Z,17.05
2018-04-23T00:33:09.100Z,17.02
2018-04-23T00:34:09.159Z,16.93
2018-04-23T00:36:02.159Z,17.12
2018-04-23T00:37:02.215Z,17.16
2018-04-23T00:38:55.208Z,17.24
2018-04-23T00:39:55.272Z,17.20
2018-04-23T00:41:48.274Z,17.24
2018-04-23T00:42:48.331Z,17.16
2018-04-23T00:44:41.334Z,17.24
2018-04-23T00:45:41.388Z,17.29
2018-04-23T00:47:34.387Z,17.23
2018-04-23T00:48:34.445Z,17.27
2018-04-23T00:50:27.463Z,17.19
2018-04-23T00:51:27.524Z,17.20
2018-04-23T00:53:20.512Z,17.24
2018-04-23T00:54:20.575Z,17.23
2018-04-23T00:56:13.573Z,17.11
2018-04-23T00:57:13.630Z,17.09
2018-04-23T00:59:06.624Z,17.05
2018-04-23T01:00:06.682Z,17.12
2018-04-23T01:01:59.679Z,17.06
2018-04-23T01:02:59.860Z,17.02
2018-04-23T01:04:52.723Z,17.01
2018-04-23T01:05:52.790Z,16.97
2018-04-23T01:07:45.785Z,16.94
2018-04-23T01:08:45.840Z,16.90
2018-04-23T01:10:38.841Z,16.89
2018-04-23T01:11:38.900Z,16.91
2018-04-23T01:13:31.892Z,16.90
2018-04-23T01:14:31.951Z,16.84
2018-04-23T01:16:24.952Z,16.79
2018-04-23T01:17:25.007Z,16.75
2018-04-23T01:19:17.998Z,16.79
2018-04-23T01:20:18.061Z,16.79
2018-04-23T01:22:11.058Z,16.79
2018-04-23T01:23:11.114Z,16.71
2018-04-23T01:25:04.101Z,16.65
2018-04-23T01:26:04.168Z,16.56
2018-04-23T01:27:57.166Z,16.61
2018-04-23T01:28:57.219Z,16.61
2018-04-23T01:30:50.217Z,16.58
2018-04-23T01:31:50.275Z,16.65
2018-04-23T01:33:43.262Z,16.64
2018-04-23T01:34:43.593Z,16.61
2018-04-23T01:36:36.324Z,16.51
2018-04-23T01:37:36.378Z,16.53
2018-04-23T01:39:29.377Z,16.58
2018-04-23T01:40:29.430Z,16.46
2018-04-23T01:42:22.428Z,16.46
2018-04-23T01:43:22.486Z,16.43
2018-04-23T01:45:15.471Z,16.43
2018-04-23T01:46:15.534Z,16.38
2018-04-23T01:48:08.537Z,16.41
2018-04-23T01:49:08.590Z,16.43
2018-04-23T01:51:01.588Z,16.47
2018-04-23T01:52:01.644Z,16.46
2018-04-23T01:53:54.633Z,16.46
2018-04-23T01:54:54.694Z,16.50
2018-04-23T01:56:47.697Z,16.51
2018-04-23T01:57:47.750Z,16.41
2018-04-23T01:59:40.747Z,16.49
2018-04-23T02:00:40.810Z,16.50
2018-04-23T02:02:33.806Z,16.53
2018-04-23T02:03:33.862Z,16.49
2018-04-23T02:05:26.858Z,16.49
2018-04-23T02:06:26.919Z,16.50
2018-04-23T02:08:19.921Z,16.53
2018-04-23T02:09:19.979Z,16.43
2018-04-23T02:11:12.979Z,16.41
2018-04-23T02:12:13.038Z,16.42
2018-04-23T02:14:06.029Z,16.39
2018-04-23T02:15:06.094Z,16.38
2018-04-23T02:16:59.097Z,16.42
2018-04-23T02:17:59.148Z,16.38
2018-04-23T02:19:52.136Z,16.33
2018-04-23T02:20:52.204Z,16.33
2018-04-23T02:22:45.209Z,16.24
2018-04-23T02:23:45.257Z,16.23
2018-04-23T02:25:38.262Z,16.26
2018-04-23T02:26:38.324Z,16.26
2018-04-23T02:28:31.321Z,16.15
2018-04-23T02:29:31.384Z,16.21
2018-04-23T02:31:24.381Z,16.20
2018-04-23T02:32:24.437Z,16.17
2018-04-23T02:34:17.433Z,16.09
2018-04-23T02:35:17.500Z,16.13
2018-04-23T02:37:10.503Z,16.32
2018-04-23T02:38:10.550Z,16.16
2018-04-23T02:40:03.549Z,16.29
2018-04-23T02:41:03.611Z,16.21
2018-04-23T02:42:56.613Z,16.15
2018-04-23T02:43:56.670Z,16.16
2018-04-23T02:45:49.657Z,16.12
2018-04-23T02:46:49.721Z,16.23
2018-04-23T02:48:42.722Z,16.20
2018-04-23T02:49:42.786Z,16.17
2018-04-23T02:51:35.780Z,16.17
2018-04-23T02:52:35.839Z,16.10
2018-04-23T02:54:28.831Z,16.15
2018-04-23T02:55:28.895Z,16.05
2018-04-23T02:57:21.895Z,16.02
2018-04-23T02:58:21.951Z,16.01
2018-04-23T03:00:14.940Z,16.05
2018-04-23T03:01:15.004Z,15.97
2018-04-23T03:03:08.008Z,15.98
2018-04-23T03:04:08.065Z,16.02
2018-04-23T03:06:01.084Z,15.92
2018-04-23T03:07:01.148Z,15.98
2018-04-23T03:08:54.145Z,16.05
2018-04-23T03:09:54.207Z,16.04
2018-04-23T03:11:47.197Z,16.08
2018-04-23T03:12:47.252Z,16.04
2018-04-23T03:14:40.240Z,16.16
2018-04-23T03:15:40.302Z,16.08
2018-04-23T03:17:33.299Z,16.15
2018-04-23T03:18:33.362Z,16.12
2018-04-23T03:20:26.358Z,16.09
2018-04-23T03:21:26.420Z,16.20
2018-04-23T03:23:19.418Z,16.12
2018-04-23T03:24:19.472Z,16.02
2018-04-23T03:26:12.968Z,16.09
2018-04-23T03:27:13.032Z,16.04
2018-04-23T03:29:06.536Z,15.92
2018-04-23T03:30:06.592Z,16.00
2018-04-23T03:31:59.592Z,15.76
2018-04-23T03:32:59.662Z,15.80
2018-04-23T03:34:52.638Z,15.76
2018-04-23T03:35:52.705Z,15.86
2018-04-23T03:37:45.699Z,15.67
2018-04-23T03:38:45.869Z,15.73
2018-04-23T03:40:38.753Z,15.68
2018-04-23T03:41:38.811Z,15.70
2018-04-23T03:43:31.809Z,15.68
2018-04-23T03:44:31.868Z,15.68
2018-04-23T03:46:24.857Z,15.62
2018-04-23T03:47:24.918Z,15.62
2018-04-23T03:49:17.915Z,15.62
2018-04-23T03:50:17.971Z,15.44
2018-04-23T03:52:10.968Z,15.64
2018-04-23T03:53:11.026Z,15.67
2018-04-23T03:55:04.031Z,15.64
2018-04-23T03:56:04.101Z,15.65
2018-04-23T03:57:57.094Z,15.64
2018-04-23T03:58:57.147Z,15.62
2018-04-23T04:00:50.136Z,15.65
2018-04-23T04:01:50.200Z,15.72
2018-04-23T04:03:43.197Z,15.67
2018-04-23T04:04:43.251Z,15.70
2018-04-23T04:06:36.241Z,15.67
2018-04-23T04:07:36.306Z,15.72
2018-04-23T04:09:29.304Z,15.68
2018-04-23T04:10:29.359Z,15.79
2018-04-23T04:12:22.356Z,15.68
2018-04-23T04:13:22.410Z,15.70
2018-04-23T04:15:15.400Z,15.68
2018-04-23T04:16:15.461Z,15.65
2018-04-23T04:18:08.459Z,15.68
2018-04-23T04:19:08.528Z,15.70
2018-04-23T04:21:01.505Z,15.70
2018-04-23T04:22:01.573Z,15.70
2018-04-23T04:23:54.563Z,15.68
2018-04-23T04:24:54.623Z,15.64
2018-04-23T04:26:47.612Z,15.55
2018-04-23T04:27:47.670Z,15.55
2018-04-23T04:29:40.667Z,15.68
2018-04-23T04:30:40.720Z,15.49
2018-04-23T04:32:33.719Z,15.62
2018-04-23T04:33:33.770Z,15.70
2018-04-23T04:35:26.775Z,15.68
2018-04-23T04:36:26.821Z,15.62
2018-04-23T04:38:19.846Z,15.67
2018-04-23T04:39:19.872Z,15.67
2018-04-23T04:41:12.869Z,15.61
2018-04-23T04:42:12.968Z,15.61
2018-04-23T04:44:05.933Z,15.62
2018-04-23T04:45:05.988Z,15.70
2018-04-23T04:46:58.986Z,15.68
2018-04-23T04:47:59.048Z,15.72
2018-04-23T04:49:52.044Z,15.65
2018-04-23T04:50:52.107Z,15.72
2018-04-23T04:52:45.109Z,15.72
2018-04-23T04:53:45.155Z,15.72
2018-04-23T04:55:38.152Z,15.72
2018-04-23T04:56:38.213Z,15.72
2018-04-23T04:58:31.213Z,15.70
2018-04-23T04:59:31.282Z,15.65
2018-04-23T05:01:24.259Z,15.76
2018-04-23T05:02:24.319Z,15.70
2018-04-23T05:04:17.316Z,15.76
2018-04-23T05:05:17.371Z,15.79
2018-04-23T05:07:10.361Z,15.77
2018-04-23T05:08:10.424Z,15.86
2018-04-23T05:10:03.420Z,15.82
2018-04-23T05:11:03.473Z,15.79
2018-04-23T05:12:56.484Z,15.82
2018-04-23T05:13:56.550Z,15.84
2018-04-23T05:15:49.541Z,15.80
2018-04-23T05:16:49.602Z,15.79
2018-04-23T05:18:42.613Z,15.86
2018-04-23T05:19:42.655Z,15.70
2018-04-23T05:21:35.649Z,15.86
2018-04-23T05:22:35.741Z,15.79
2018-04-23T05:24:28.701Z,15.86
2018-04-23T05:25:28.759Z,15.92
2018-04-23T05:27:21.746Z,16.05
2018-04-23T05:28:21.808Z,16.02
2018-04-23T05:30:14.998Z,16.04
2018-04-23T05:31:15.054Z,16.13
2018-04-23T05:33:08.054Z,16.23
2018-04-23T05:34:08.108Z,16.26
2018-04-23T05:36:01.096Z,16.26
2018-04-23T05:37:01.160Z,16.28
2018-04-23T05:38:54.157Z,16.28
2018-04-23T05:39:54.211Z,16.28
2018-04-23T05:41:47.207Z,16.21
2018-04-23T05:42:47.265Z,16.20
2018-04-23T05:44:40.262Z,16.23
2018-04-23T05:45:40.316Z,16.31
2018-04-23T05:47:33.309Z,16.38
2018-04-23T05:48:33.370Z,16.38
2018-04-23T05:50:26.369Z,16.21
2018-04-23T05:51:26.423Z,16.17
2018-04-23T05:53:19.419Z,16.31
2018-04-23T05:54:19.475Z,16.32
2018-04-23T05:56:12.467Z,16.23
2018-04-23T05:57:12.527Z,16.23
2018-04-23T05:59:05.525Z,16.24
2018-04-23T06:00:05.583Z,16.24
2018-04-23T06:01:58.571Z,16.21
2018-04-23T06:02:58.634Z,16.20
2018-04-23T06:04:51.635Z,16.24
2018-04-23T06:05:51.692Z,16.24
2018-04-23T06:07:44.693Z,16.26
2018-04-23T06:08:44.802Z,16.23
2018-04-23T06:10:37.754Z,16.46
2018-04-23T06:11:37.810Z,16.53
2018-04-23T06:13:30.808Z,16.66
2018-04-23T06:14:30.863Z,16.83
2018-04-23T06:16:23.864Z,17.01
2018-04-23T06:17:23.919Z,17.01
2018-04-23T06:19:16.922Z,16.96
2018-04-23T06:20:16.978Z,17.44
2018-04-23T06:22:09.976Z,18.49
2018-04-23T06:23:10.038Z,18.37
2018-04-23T06:25:03.036Z,18.23
2018-04-23T06:26:03.095Z,17.92
2018-04-23T06:27:56.092Z,17.42
2018-04-23T06:28:56.158Z,17.24
2018-04-23T06:30:49.156Z,17.06
2018-04-23T06:31:49.216Z,17.14
2018-04-23T06:33:42.217Z,17.34
2018-04-23T06:34:42.271Z,17.64
2018-04-23T06:36:35.265Z,17.38
2018-04-23T06:37:35.325Z,17.26
2018-04-23T06:39:28.831Z,17.56
2018-04-23T06:40:28.894Z,17.82
2018-04-23T06:42:21.890Z,18.22
2018-04-23T06:43:21.950Z,17.95
2018-04-23T06:45:14.951Z,17.79
2018-04-23T06:46:15.008Z,17.54
2018-04-23T06:48:08.006Z,17.27
2018-04-23T06:49:08.069Z,17.31
2018-04-23T06:51:01.066Z,17.33
2018-04-23T06:52:01.126Z,17.38
2018-04-23T06:53:54.123Z,17.22
2018-04-23T06:54:54.181Z,17.23
2018-04-23T06:56:47.171Z,16.97
2018-04-23T06:57:47.242Z,16.84
2018-04-23T06:59:40.235Z,16.84
2018-04-23T07:00:40.299Z,16.96
2018-04-23T07:02:33.289Z,17.14
2018-04-23T07:03:33.352Z,17.45
2018-04-23T07:05:26.352Z,17.76
2018-04-23T07:06:26.408Z,17.80
2018-04-23T07:08:19.407Z,18.43
2018-04-23T07:09:19.471Z,18.80
2018-04-23T07:11:12.473Z,18.88
2018-04-23T07:12:12.529Z,19.00
2018-04-23T07:14:05.528Z,18.70
2018-04-23T07:15:05.585Z,18.63
2018-04-23T07:16:58.580Z,18.80
2018-04-23T07:17:58.644Z,18.60
2018-04-23T07:19:51.641Z,18.90
2018-04-23T07:20:51.709Z,18.73
2018-04-23T07:22:44.699Z,19.19
2018-04-23T07:23:44.763Z,20.24
2018-04-23T07:25:37.767Z,21.54
2018-04-23T07:26:37.825Z,22.55
2018-04-23T07:28:30.818Z,24.33
2018-04-23T07:29:30.886Z,24.29
2018-04-23T07:31:23.890Z,24.73
2018-04-23T07:32:23.953Z,24.51
2018-04-23T07:34:16.959Z,24.95
2018-04-23T07:35:17.019Z,25.48
2018-04-23T07:37:10.021Z,25.93
2018-04-23T07:38:10.089Z,25.87
2018-04-23T07:40:04.608Z,26.06
2018-04-23T07:41:04.674Z,26.90
2018-04-23T07:42:57.679Z,27.26
2018-04-23T07:43:57.750Z,26.78
2018-04-23T07:45:50.762Z,27.22
2018-04-23T07:46:50.823Z,27.93
2018-04-23T07:48:43.831Z,28.48
2018-04-23T07:49:43.899Z,28.63
2018-04-23T07:51:36.916Z,28.11
2018-04-23T07:52:36.981Z,28.78
2018-04-23T07:54:29.997Z,29.19
2018-04-23T07:55:30.063Z,29.24
2018-04-23T07:57:23.074Z,29.32
2018-04-23T07:58:23.146Z,29.41
2018-04-23T08:00:16.164Z,29.86
2018-04-23T08:01:16.236Z,29.98
2018-04-23T08:03:09.247Z,28.54
2018-04-23T08:04:09.315Z,28.98
2018-04-23T08:06:02.336Z,29.31
2018-04-23T08:07:02.404Z,29.60
2018-04-23T08:08:55.416Z,28.37
2018-04-23T08:09:55.489Z,27.63
2018-04-23T08:11:48.513Z,27.65
2018-04-23T08:12:48.584Z,28.01
2018-04-23T08:14:41.602Z,29.29
2018-04-23T08:15:41.670Z,29.35
2018-04-23T08:17:34.698Z,29.16
2018-04-23T08:18:34.760Z,28.23
2018-04-23T08:20:27.789Z,28.32
2018-04-23T08:21:27.860Z,29.10
2018-04-23T08:23:20.873Z,29.56
2018-04-23T08:24:20.949Z,29.94
2018-04-23T08:26:13.970Z,29.95
2018-04-23T08:27:14.037Z,29.91
2018-04-23T08:29:07.057Z,29.39
2018-04-23T08:30:07.136Z,29.91
2018-04-23T08:32:00.208Z,26.43
2018-04-23T08:33:00.225Z,25.75
2018-04-23T08:34:53.254Z,26.53
2018-04-23T08:35:53.322Z,26.92
2018-04-23T08:37:46.336Z,28.19
2018-04-23T08:38:46.412Z,28.01
2018-04-23T08:40:39.436Z,28.08
2018-04-23T08:41:39.508Z,27.30
2018-04-23T08:43:32.524Z,26.95
2018-04-23T08:44:32.601Z,25.69
2018-04-23T08:46:25.618Z,24.93
2018-04-23T08:47:25.687Z,23.69
2018-04-23T08:49:18.699Z,22.51
2018-04-23T08:50:18.771Z,22.38
2018-04-23T08:52:11.794Z,21.96
2018-04-23T08:53:11.857Z,23.39
2018-04-23T08:55:04.873Z,23.92
2018-04-23T08:56:04.938Z,24.95
2018-04-23T08:57:57.947Z,24.68
2018-04-23T08:58:58.020Z,25.81
2018-04-23T09:00:51.039Z,26.84
2018-04-23T09:01:51.106Z,27.54
2018-04-23T09:03:44.119Z,28.98
2018-04-23T09:04:44.194Z,29.16
2018-04-23T09:06:37.213Z,29.34
2018-04-23T09:07:37.282Z,28.98
2018-04-23T09:09:30.297Z,29.27
2018-04-23T09:10:30.387Z,29.07
2018-04-23T09:12:23.387Z,29.98
2018-04-23T09:13:23.455Z,29.79
2018-04-23T09:15:16.480Z,28.78
2018-04-23T09:16:16.550Z,27.89
2018-04-23T09:18:09.572Z,26.44
2018-04-23T09:19:09.640Z,25.21
2018-04-23T09:21:02.657Z,24.47
2018-04-23T09:22:02.725Z,24.02
2018-04-23T09:23:55.742Z,22.88
2018-04-23T09:24:55.811Z,22.63
2018-04-23T09:26:48.831Z,22.53
2018-04-23T09:27:48.894Z,22.32
2018-04-23T09:29:41.903Z,22.30
2018-04-23T09:30:41.973Z,22.35
2018-04-23T09:32:34.989Z,22.23
2018-04-23T09:33:35.050Z,22.22
2018-04-23T09:35:28.061Z,22.43
2018-04-23T09:36:28.124Z,22.65
2018-04-23T09:38:21.133Z,22.59
2018-04-23T09:39:21.203Z,22.39
2018-04-23T09:41:14.221Z,22.44
2018-04-23T09:42:14.285Z,22.55
2018-04-23T09:44:07.285Z,22.53
2018-04-23T09:45:07.356Z,22.65
2018-04-23T09:47:00.365Z,22.70
2018-04-23T09:48:00.430Z,22.47
2018-04-23T09:49:53.433Z,22.15
2018-04-23T09:50:53.499Z,21.98
2018-04-23T09:52:46.508Z,21.96
2018-04-23T09:53:46.569Z,21.98
2018-04-23T09:55:39.582Z,22.13
2018-04-23T09:56:39.645Z,22.07
2018-04-23T09:58:32.678Z,21.55
2018-04-23T09:59:32.723Z,21.43
2018-04-23T10:01:25.722Z,21.33
2018-04-23T10:02:25.784Z,21.36
2018-04-23T10:04:18.787Z,21.40
2018-04-23T10:05:18.852Z,21.35
2018-04-23T10:07:11.856Z,21.42
2018-04-23T10:08:11.920Z,21.60
2018-04-23T10:10:04.918Z,21.66
2018-04-23T10:11:04.987Z,21.79
2018-04-23T10:12:57.997Z,21.82
2018-04-23T10:13:58.056Z,21.72
2018-04-23T10:15:51.063Z,21.95
2018-04-23T10:16:51.125Z,21.89
2018-04-23T10:18:44.126Z,22.13
2018-04-23T10:19:44.196Z,22.11
2018-04-23T10:21:37.203Z,21.77
2018-04-23T10:22:37.263Z,21.76
2018-04-23T10:24:30.279Z,21.46
2018-04-23T10:25:30.338Z,21.55
2018-04-23T10:27:23.343Z,21.27
2018-04-23T10:28:23.405Z,21.33
2018-04-23T10:30:16.408Z,21.50
2018-04-23T10:31:16.474Z,21.50
2018-04-23T10:33:09.477Z,21.73
2018-04-23T10:34:09.538Z,21.89
2018-04-23T10:36:02.547Z,22.08
2018-04-23T10:37:02.606Z,22.02
2018-04-23T10:38:55.603Z,22.00
2018-04-23T10:39:55.672Z,22.15
2018-04-23T10:41:48.678Z,22.02
2018-04-23T10:42:48.740Z,22.13
2018-04-23T10:44:41.742Z,22.11
2018-04-23T10:45:41.808Z,22.02
2018-04-23T10:47:34.820Z,21.99
2018-04-23T10:48:34.884Z,22.08
2018-04-23T10:50:27.882Z,22.15
2018-04-23T10:51:27.950Z,21.95
2018-04-23T10:53:20.952Z,21.79
2018-04-23T10:54:21.012Z,21.82
2018-04-23T10:56:14.018Z,21.76
2018-04-23T10:57:14.083Z,21.76
2018-04-23T10:59:07.081Z,21.79
2018-04-23T11:00:07.149Z,21.88
2018-04-23T11:02:00.152Z,21.66
2018-04-23T11:03:00.214Z,21.77
2018-04-23T11:04:53.210Z,21.67
2018-04-23T11:05:53.279Z,21.64
2018-04-23T11:07:46.285Z,21.45
2018-04-23T11:08:46.348Z,21.54
2018-04-23T11:10:39.347Z,21.69
2018-04-23T11:11:39.415Z,21.79
2018-04-23T11:13:32.419Z,22.08
2018-04-23T11:14:32.482Z,22.23
2018-04-23T11:16:25.503Z,22.17
2018-04-23T11:17:25.548Z,22.14
2018-04-23T11:19:18.551Z,21.77
2018-04-23T11:20:18.617Z,21.60
2018-04-23T11:22:11.626Z,21.25
2018-04-23T11:23:11.689Z,20.96
2018-04-23T11:25:04.692Z,20.55
2018-04-23T11:26:04.759Z,20.58
2018-04-23T11:27:57.760Z,20.56
2018-04-23T11:28:57.823Z,20.36
2018-04-23T11:30:50.820Z,20.48
2018-04-23T11:31:50.887Z,20.60
2018-04-23T11:33:43.893Z,20.70
2018-04-23T11:34:43.949Z,20.84
2018-04-23T11:36:36.955Z,20.85
2018-04-23T11:37:37.016Z,20.80
2018-04-23T11:39:30.520Z,21.09
2018-04-23T11:40:30.591Z,21.25
2018-04-23T11:42:23.594Z,21.22
2018-04-23T11:43:23.654Z,20.99
2018-04-23T11:45:16.658Z,20.88
2018-04-23T11:46:16.728Z,20.87
2018-04-23T11:48:09.730Z,20.74
2018-04-23T11:49:09.792Z,20.74
2018-04-23T11:51:02.785Z,20.47
2018-04-23T11:52:02.853Z,20.56
2018-04-23T11:53:56.364Z,20.67
2018-04-23T11:54:56.429Z,20.74
2018-04-23T11:56:49.433Z,20.66
2018-04-23T11:57:49.490Z,20.72
2018-04-23T11:59:42.491Z,20.75
2018-04-23T12:00:42.557Z,20.75
2018-04-23T12:02:35.559Z,20.75
2018-04-23T12:03:35.619Z,20.87
2018-04-23T12:05:28.620Z,21.05
2018-04-23T12:06:28.684Z,20.90
2018-04-23T12:08:21.688Z,20.84
2018-04-23T12:09:21.748Z,20.80
2018-04-23T12:11:14.746Z,20.85
2018-04-23T12:12:14.812Z,20.80
2018-04-23T12:14:07.814Z,20.85
2018-04-23T12:15:07.870Z,21.07
2018-04-23T12:17:00.881Z,21.17
2018-04-23T12:18:00.936Z,21.21
2018-04-23T12:19:53.933Z,21.11
2018-04-23T12:20:54.045Z,21.03
2018-04-23T12:22:47.001Z,20.99
2018-04-23T12:23:47.066Z,21.05
2018-04-23T12:25:40.066Z,20.95
2018-04-23T12:26:40.133Z,20.95
2018-04-23T12:28:33.140Z,20.99
2018-04-23T12:29:33.198Z,20.90
2018-04-23T12:31:26.265Z,20.97
2018-04-23T12:32:26.262Z,20.95
2018-04-23T12:34:19.275Z,20.80
2018-04-23T12:35:19.338Z,20.78
2018-04-23T12:37:12.344Z,20.75
2018-04-23T12:38:12.399Z,20.75
2018-04-23T12:40:05.403Z,21.00
2018-04-23T12:41:05.467Z,21.12
2018-04-23T12:42:58.489Z,21.12
2018-04-23T12:43:58.534Z,21.11
2018-04-23T12:45:51.546Z,20.84
2018-04-23T12:46:51.595Z,20.78
2018-04-23T12:48:44.596Z,20.67
2018-04-23T12:49:44.657Z,20.72
2018-04-23T12:51:37.658Z,20.69
2018-04-23T12:52:37.720Z,20.60
2018-04-23T12:54:30.723Z,20.50
2018-04-23T12:55:30.787Z,20.39
2018-04-23T12:57:23.790Z,20.43
2018-04-23T12:58:23.851Z,20.31
2018-04-23T13:00:16.846Z,20.29
2018-04-23T13:01:16.910Z,20.22
2018-04-23T13:03:09.932Z,20.28
2018-04-23T13:04:09.994Z,20.26
2018-04-23T13:06:02.996Z,20.29
2018-04-23T13:07:03.061Z,20.43
2018-04-23T13:08:56.065Z,20.37
2018-04-23T13:09:56.428Z,20.21
2018-04-23T13:11:49.125Z,20.29
2018-04-23T13:12:49.184Z,20.34
2018-04-23T13:14:42.194Z,20.16
2018-04-23T13:15:42.258Z,20.16
2018-04-23T13:17:35.766Z,20.31
2018-04-23T13:18:35.825Z,20.41
2018-04-23T13:20:28.822Z,20.03
2018-04-23T13:21:28.890Z,20.19
2018-04-23T13:23:21.891Z,20.24
2018-04-23T13:24:21.952Z,20.29
2018-04-23T13:26:14.948Z,20.00
2018-04-23T13:27:15.015Z,19.95
2018-04-23T13:29:08.018Z,19.94
2018-04-23T13:30:08.077Z,20.07
2018-04-23T13:32:01.073Z,20.18
2018-04-23T13:33:01.137Z,20.21
2018-04-23T13:34:54.140Z,20.07
2018-04-23T13:35:54.202Z,20.07
2018-04-23T13:37:47.201Z,20.16
2018-04-23T13:38:47.266Z,20.10
2018-04-23T13:40:40.261Z,20.09
2018-04-23T13:41:40.325Z,20.04
2018-04-23T13:43:33.835Z,19.91
2018-04-23T13:44:33.902Z,19.96
2018-04-23T13:46:26.896Z,20.00
2018-04-23T13:47:26.961Z,20.04
2018-04-23T13:49:19.967Z,20.13
2018-04-23T13:50:20.027Z,20.02
2018-04-23T13:52:13.033Z,20.04
2018-04-23T13:53:13.088Z,20.03
2018-04-23T13:55:06.080Z,20.06
2018-04-23T13:56:06.151Z,20.14
2018-04-23T13:57:59.151Z,20.37
2018-04-23T13:58:59.210Z,20.39
2018-04-23T14:00:52.205Z,20.43
2018-04-23T14:01:52.268Z,20.40
2018-04-23T14:03:45.272Z,20.29
2018-04-23T14:04:45.359Z,20.37
2018-04-23T14:06:38.330Z,20.50
2018-04-23T14:07:38.388Z,20.44
2018-04-23T14:09:31.404Z,20.44
2018-04-23T14:10:31.452Z,20.51
2018-04-23T14:12:24.468Z,20.56
2018-04-23T14:13:24.522Z,20.58
2018-04-23T14:15:17.518Z,20.34
2018-04-23T14:16:17.583Z,20.14
2018-04-23T14:18:10.586Z,20.00
2018-04-23T14:19:10.730Z,20.09
2018-04-23T14:21:03.639Z,20.03
2018-04-23T14:22:03.709Z,20.03
2018-04-23T14:23:56.713Z,19.99
2018-04-23T14:24:56.770Z,20.04
2018-04-23T14:26:49.763Z,20.07
2018-04-23T14:27:49.829Z,20.06
2018-04-23T14:29:42.832Z,20.11
2018-04-23T14:30:42.888Z,20.11
2018-04-23T14:32:35.889Z,20.06
2018-04-23T14:33:35.953Z,20.07
2018-04-23T14:35:28.957Z,20.16
2018-04-23T14:36:29.015Z,20.24
2018-04-23T14:38:22.042Z,20.31
2018-04-23T14:39:22.075Z,20.32
2018-04-23T14:41:15.068Z,20.25
2018-04-23T14:42:15.135Z,20.22
2018-04-23T14:44:08.649Z,20.24
2018-04-23T14:45:08.703Z,20.11
2018-04-23T14:47:01.707Z,20.31
2018-04-23T14:48:01.768Z,20.37
2018-04-23T14:49:54.768Z,20.65
2018-04-23T14:50:54.827Z,20.63
2018-04-23T14:52:47.829Z,20.74
2018-04-23T14:53:47.889Z,20.67
2018-04-23T14:55:40.896Z,20.72
2018-04-23T14:56:40.953Z,20.63
2018-04-23T14:58:33.960Z,20.44
2018-04-23T14:59:34.018Z,20.36
2018-04-23T15:01:27.015Z,20.21
2018-04-23T15:02:27.080Z,20.16
2018-04-23T15:04:20.087Z,20.02
2018-04-23T15:05:20.145Z,20.07
2018-04-23T15:07:13.652Z,20.11
2018-04-23T15:08:13.713Z,20.06
2018-04-23T15:10:06.721Z,20.18
2018-04-23T15:11:06.777Z,20.06
2018-04-23T15:12:59.779Z,19.89
2018-04-23T15:13:59.847Z,19.94
2018-04-23T15:15:52.857Z,19.81
2018-04-23T15:16:52.906Z,19.74
2018-04-23T15:18:45.909Z,19.91
2018-04-23T15:19:45.967Z,19.82
2018-04-23T15:21:38.962Z,19.84
2018-04-23T15:22:39.031Z,19.95
2018-04-23T15:24:32.032Z,19.76
2018-04-23T15:25:32.089Z,19.96
2018-04-23T15:27:25.083Z,19.91
2018-04-23T15:28:25.151Z,19.88
2018-04-23T15:30:18.176Z,19.82
2018-04-23T15:31:18.235Z,19.89
2018-04-23T15:33:11.211Z,19.89
2018-04-23T15:34:11.281Z,19.81
2018-04-23T15:36:04.284Z,19.82
2018-04-23T15:37:04.341Z,19.70
2018-04-23T15:38:57.352Z,19.62
2018-04-23T15:39:57.407Z,19.56
2018-04-23T15:41:50.424Z,19.52
2018-04-23T15:42:50.479Z,19.59
2018-04-23T15:44:43.475Z,19.58
2018-04-23T15:45:43.534Z,19.69
2018-04-23T15:47:36.522Z,19.81
2018-04-23T15:48:36.610Z,19.85
2018-04-23T15:50:29.616Z,19.94
2018-04-23T15:51:29.706Z,19.95
2018-04-23T15:53:22.675Z,20.04
2018-04-23T15:54:22.751Z,19.96
2018-04-23T15:56:15.746Z,19.94
2018-04-23T15:57:15.821Z,19.94
2018-04-23T15:59:08.814Z,19.79
2018-04-23T16:00:08.877Z,19.73
2018-04-23T16:02:01.871Z,19.71
2018-04-23T16:03:01.940Z,19.64
2018-04-23T16:04:54.938Z,19.58
2018-04-23T16:05:54.996Z,19.44
2018-04-23T16:07:47.993Z,19.34
2018-04-23T16:08:48.059Z,19.44
2018-04-23T16:10:41.065Z,19.51
2018-04-23T16:11:41.119Z,19.47
2018-04-23T16:13:34.121Z,19.64
2018-04-23T16:14:34.192Z,19.62
2018-04-23T16:16:27.200Z,19.52
2018-04-23T16:17:27.258Z,19.33
2018-04-23T16:19:20.257Z,19.14
2018-04-23T16:20:20.316Z,19.08
2018-04-23T16:22:13.316Z,19.00
2018-04-23T16:23:13.381Z,18.98
2018-04-23T16:25:06.434Z,18.83
2018-04-23T16:26:06.438Z,18.77
2018-04-23T16:27:59.432Z,18.63
2018-04-23T16:28:59.496Z,18.65
2018-04-23T16:30:52.518Z,18.56
2018-04-23T16:31:52.559Z,18.52
2018-04-23T16:33:45.560Z,18.43
2018-04-23T16:34:45.625Z,18.43
2018-04-23T16:36:38.627Z,18.33
2018-04-23T16:37:38.684Z,18.31
2018-04-23T16:39:31.751Z,18.31
2018-04-23T16:40:31.759Z,18.23
2018-04-23T16:42:24.764Z,18.28
2018-04-23T16:43:24.831Z,18.29
2018-04-23T16:45:17.849Z,18.28
2018-04-23T16:46:17.889Z,18.29
2018-04-23T16:48:10.882Z,18.37
2018-04-23T16:49:10.947Z,18.22
2018-04-23T16:51:03.980Z,18.16
2018-04-23T16:52:04.021Z,18.23
2018-04-23T16:53:56.997Z,18.13
2018-04-23T16:54:57.061Z,18.10
2018-04-23T16:56:50.060Z,18.11
2018-04-23T16:57:50.117Z,18.00
2018-04-23T16:59:43.118Z,18.13
2018-04-23T17:00:43.174Z,18.04
2018-04-23T17:02:36.165Z,17.94
2018-04-23T17:03:36.232Z,17.98
2018-04-23T17:05:29.233Z,17.86
2018-04-23T17:06:29.294Z,17.90
2018-04-23T17:08:22.285Z,17.94
2018-04-23T17:09:22.342Z,17.92
2018-04-23T17:11:15.348Z,17.95
2018-04-23T17:12:15.396Z,18.00
2018-04-23T17:14:08.412Z,17.83
2018-04-23T17:15:08.459Z,17.85
2018-04-23T17:17:01.462Z,17.74
2018-04-23T17:18:01.519Z,17.71
2018-04-23T17:19:54.518Z,17.65
2018-04-23T17:20:54.573Z,17.68
2018-04-23T17:22:47.567Z,17.67
2018-04-23T17:23:47.630Z,17.65
2018-04-23T17:25:40.632Z,17.64
2018-04-23T17:26:40.686Z,17.67
2018-04-23T17:28:33.679Z,17.65
2018-04-23T17:29:33.765Z,17.56
2018-04-23T17:31:26.749Z,17.54
2018-04-23T17:32:26.800Z,17.42
2018-04-23T17:34:19.795Z,17.34
2018-04-23T17:35:19.858Z,17.39
2018-04-23T17:37:12.859Z,17.39
2018-04-23T17:38:12.915Z,17.49
2018-04-23T17:40:05.918Z,17.39
2018-04-23T17:41:05.973Z,17.33
2018-04-23T17:42:58.966Z,17.27
2018-04-23T17:43:59.030Z,17.27
2018-04-23T17:45:52.033Z,17.01
2018-04-23T17:46:52.089Z,17.04
2018-04-23T17:48:45.079Z,17.05
2018-04-23T17:49:45.157Z,17.05
2018-04-23T17:51:38.138Z,16.99
2018-04-23T17:52:38.206Z,16.94
2018-04-23T17:54:31.191Z,16.89
2018-04-23T17:55:31.263Z,16.81
2018-04-23T17:57:24.272Z,16.84
2018-04-23T17:58:24.318Z,16.86
2018-04-23T18:00:17.322Z,16.81
2018-04-23T18:01:17.373Z,16.81
2018-04-23T18:03:10.365Z,16.78
2018-04-23T18:04:10.474Z,16.78
2018-04-23T18:06:03.434Z,16.72
2018-04-23T18:07:03.489Z,16.72
2018-04-23T18:08:56.480Z,16.64
2018-04-23T18:09:56.544Z,16.60
2018-04-23T18:11:49.543Z,16.56
2018-04-23T18:12:49.600Z,16.47
2018-04-23T18:14:42.602Z,16.43
2018-04-23T18:15:42.662Z,16.36
2018-04-23T18:17:35.680Z,16.36
2018-04-23T18:18:35.717Z,16.20
2018-04-23T18:20:28.724Z,16.28
2018-04-23T18:21:28.774Z,16.36
2018-04-23T18:23:21.768Z,16.21
2018-04-23T18:24:21.835Z,16.17
2018-04-23T18:26:14.830Z,16.13
2018-04-23T18:27:14.883Z,16.15
2018-04-23T18:29:07.874Z,16.13
2018-04-23T18:30:07.939Z,16.05
2018-04-23T18:32:00.943Z,16.02
2018-04-23T18:33:01.002Z,15.95
2018-04-23T18:34:53.991Z,15.98